createdAt,value
2022-12-18T08:21:29.769Z,25.00
2022-12-18T08:22:29.303Z,25.00
2022-12-18T08:23:29.278Z,25.00
2022-12-18T08:24:29.195Z,25.00
2022-12-18T08:25:29.170Z,25.00
2022-12-18T08:26:29.112Z,0.00
2022-12-18T08:27:30.095Z,0.00
2022-12-18T08:28:29.018Z,0.00
2022-12-18T08:29:29.016Z,0.00
2022-12-18T08:30:28.989Z,0.00
2022-12-18T08:31:29.165Z,0.00
2022-12-18T08:32:28.931Z,0.00
2022-12-18T08:33:28.808Z,0.00
2022-12-18T08:34:28.742Z,0.00
2022-12-18T08:35:32.809Z,0.00
2022-12-18T08:36:29.816Z,0.00
2022-12-18T08:37:28.686Z,0.00
2022-12-18T08:38:28.570Z,0.00
2022-12-18T08:39:28.477Z,0.00
2022-12-18T08:40:28.468Z,0.00
2022-12-18T08:41:28.376Z,0.00
2022-12-18T08:42:28.532Z,0.00
2022-12-18T08:43:28.319Z,0.00
2022-12-18T08:44:28.297Z,0.00
2022-12-18T08:45:28.207Z,15.58
2022-12-18T08:46:28.262Z,30.20
2022-12-18T08:47:28.143Z,71.77
2022-12-18T08:48:28.119Z,47.12
2022-12-18T08:49:28.005Z,130.28
2022-12-18T08:50:28.012Z,91.56
2022-12-18T08:51:27.915Z,64.54
2022-12-18T08:52:27.930Z,66.82
2022-12-18T08:53:32.713Z,71.30
2022-12-18T08:54:28.803Z,71.39
2022-12-18T08:55:27.730Z,60.17
2022-12-18T08:56:27.705Z,70.75
2022-12-18T08:57:27.610Z,54.42
2022-12-18T08:58:27.620Z,43.46
2022-12-18T08:59:27.539Z,32.98
2022-12-18T09:00:27.506Z,28.94
2022-12-18T09:01:27.668Z,25.36
2022-12-18T09:02:27.632Z,25.66
2022-12-18T09:03:27.357Z,27.85
2022-12-18T09:04:27.325Z,28.56
2022-12-18T09:05:27.229Z,37.43
2022-12-18T09:06:27.373Z,43.38
2022-12-18T09:07:27.172Z,39.17
2022-12-18T09:08:27.163Z,34.38
2022-12-18T09:09:27.146Z,33.27
2022-12-18T09:10:27.202Z,32.95
2022-12-18T09:11:26.997Z,26.78
2022-12-18T09:12:26.977Z,25.23
2022-12-18T09:13:26.924Z,25.79
2022-12-18T09:14:26.916Z,26.68
2022-12-18T09:15:26.927Z,26.30
2022-12-18T09:16:31.666Z,25.00
2022-12-18T09:17:27.797Z,25.20
2022-12-18T09:18:26.721Z,24.69
2022-12-18T09:19:26.712Z,21.23
2022-12-18T09:20:26.653Z,19.82
2022-12-18T09:21:26.602Z,17.70
2022-12-18T09:22:26.542Z,26.02
2022-12-18T09:23:26.498Z,29.06
2022-12-18T09:24:26.590Z,25.84
2022-12-18T09:25:26.516Z,27.59
2022-12-18T09:26:26.505Z,25.00
2022-12-18T09:27:26.330Z,25.16
2022-12-18T09:28:26.277Z,25.12
2022-12-18T09:29:26.285Z,28.49
2022-12-18T09:30:26.216Z,27.38
2022-12-18T09:31:26.384Z,27.79
2022-12-18T09:32:26.150Z,27.54
2022-12-18T09:33:26.118Z,28.47
2022-12-18T09:34:26.074Z,28.12
2022-12-18T09:35:26.151Z,25.00
2022-12-18T09:36:25.959Z,27.60
2022-12-18T09:37:26.002Z,26.96
2022-12-18T09:38:25.995Z,26.78
2022-12-18T09:39:25.887Z,26.47
2022-12-18T09:40:25.823Z,26.37
2022-12-18T09:41:25.900Z,27.23
2022-12-18T09:42:25.766Z,27.19
2022-12-18T09:43:25.719Z,27.62
2022-12-18T09:44:25.702Z,26.10
2022-12-18T09:45:25.708Z,25.82
2022-12-18T09:46:25.601Z,26.27
2022-12-18T09:47:25.631Z,25.00
2022-12-18T09:48:25.493Z,27.71
2022-12-18T09:49:25.569Z,25.00
2022-12-18T09:50:25.518Z,27.00
2022-12-18T09:51:25.427Z,25.18
2022-12-18T09:52:25.373Z,25.74
2022-12-18T09:53:25.413Z,25.00
2022-12-18T09:54:25.253Z,26.47
2022-12-18T09:55:25.248Z,27.78
2022-12-18T09:56:25.215Z,27.32
2022-12-18T09:57:25.262Z,28.98
2022-12-18T09:58:25.090Z,27.66
2022-12-18T09:59:25.108Z,26.66
2022-12-18T10:00:25.069Z,25.53
2022-12-18T10:01:25.216Z,25.00
2022-12-18T10:02:25.128Z,30.36
2022-12-18T10:03:25.116Z,26.59
2022-12-18T10:04:24.915Z,25.00
2022-12-18T10:05:24.857Z,28.04
2022-12-18T10:06:24.792Z,31.16
2022-12-18T10:07:24.923Z,27.48
2022-12-18T10:08:24.761Z,26.23
2022-12-18T10:09:24.915Z,27.16
2022-12-18T10:10:24.675Z,27.94
2022-12-18T10:11:24.673Z,25.47
2022-12-18T10:12:24.630Z,27.27
2022-12-18T10:13:24.694Z,27.64
2022-12-18T10:14:24.775Z,29.05
2022-12-18T10:15:24.564Z,25.85
2022-12-18T10:16:24.545Z,26.74
2022-12-18T10:17:24.591Z,26.97
2022-12-18T10:18:24.406Z,25.00
2022-12-18T10:19:24.478Z,27.38
2022-12-18T10:20:24.361Z,26.35
2022-12-18T10:21:24.383Z,27.25
2022-12-18T10:22:24.818Z,26.82
2022-12-18T10:23:24.340Z,27.88
2022-12-18T10:24:24.209Z,29.39
2022-12-18T10:25:24.258Z,30.53
2022-12-18T10:26:24.168Z,25.44
2022-12-18T10:27:24.162Z,27.46
2022-12-18T10:28:24.156Z,28.15
2022-12-18T10:29:29.982Z,25.19
2022-12-18T10:30:25.211Z,25.54
2022-12-18T10:31:24.221Z,25.77
2022-12-18T10:32:24.058Z,25.62
2022-12-18T10:33:24.011Z,25.06
2022-12-18T10:34:24.020Z,23.65
2022-12-18T10:35:24.088Z,27.16
2022-12-18T10:36:23.993Z,26.47
2022-12-18T10:37:23.883Z,26.78
2022-12-18T10:38:24.074Z,29.40
2022-12-18T10:39:23.828Z,30.01
2022-12-18T10:40:23.974Z,28.92
2022-12-18T10:41:23.761Z,29.44
2022-12-18T10:42:23.770Z,29.29
2022-12-18T10:43:23.721Z,28.96
2022-12-18T10:44:23.710Z,26.28
2022-12-18T10:45:23.900Z,26.47
2022-12-18T10:46:23.992Z,27.77
2022-12-18T10:47:23.597Z,26.15
2022-12-18T10:48:23.567Z,26.27
2022-12-18T10:49:23.503Z,29.32
2022-12-18T10:50:26.209Z,27.40
2022-12-18T10:51:24.484Z,27.74
2022-12-18T10:52:23.420Z,27.74
2022-12-18T10:53:23.403Z,27.63
2022-12-18T10:54:23.522Z,28.57
2022-12-18T10:55:23.374Z,28.60
2022-12-18T10:56:23.284Z,25.00
2022-12-18T10:57:23.533Z,26.59
2022-12-18T10:58:26.630Z,26.10
2022-12-18T10:59:23.234Z,26.20
2022-12-18T11:00:23.184Z,26.21
2022-12-18T11:01:23.246Z,25.15
2022-12-18T11:02:23.367Z,25.50
2022-12-18T11:03:23.168Z,21.91
2022-12-18T11:04:23.066Z,25.03
2022-12-18T11:05:23.216Z,29.34
2022-12-18T11:06:22.999Z,27.22
2022-12-18T11:07:23.029Z,26.15
2022-12-18T11:08:22.984Z,27.69
2022-12-18T11:09:22.967Z,27.41
2022-12-18T11:10:22.885Z,25.23
2022-12-18T11:11:22.935Z,26.58
2022-12-18T11:12:22.864Z,25.00
2022-12-18T11:13:22.920Z,27.44
2022-12-18T11:14:22.811Z,26.85
2022-12-18T11:15:22.834Z,28.93
2022-12-18T11:16:22.925Z,28.31
2022-12-18T11:17:25.962Z,25.63
2022-12-18T11:18:22.831Z,25.89
2022-12-18T11:19:22.726Z,26.23
2022-12-18T11:20:22.763Z,25.10
2022-12-18T11:21:22.663Z,24.63
2022-12-18T11:22:22.582Z,23.82
2022-12-18T11:23:22.570Z,27.05
2022-12-18T11:24:22.526Z,27.73
2022-12-18T11:25:37.922Z,26.00
2022-12-18T11:26:23.517Z,26.37
2022-12-18T11:27:22.465Z,26.35
2022-12-18T11:28:22.419Z,25.13
2022-12-18T11:29:22.383Z,25.26
2022-12-18T11:30:22.353Z,24.60
2022-12-18T11:31:22.304Z,28.41
2022-12-18T11:32:22.479Z,27.62
2022-12-18T11:33:22.251Z,26.54
2022-12-18T11:34:30.392Z,25.89
2022-12-18T11:35:23.224Z,26.26
2022-12-18T11:36:22.239Z,26.54
2022-12-18T11:37:22.199Z,26.55
2022-12-18T11:38:22.087Z,26.57
2022-12-18T11:39:22.496Z,28.90
2022-12-18T11:40:22.001Z,25.77
2022-12-18T11:41:22.033Z,27.62
2022-12-18T11:42:21.949Z,29.31
2022-12-18T11:43:21.972Z,26.50
2022-12-18T11:44:21.890Z,30.25
2022-12-18T11:45:21.893Z,28.15
2022-12-18T11:46:21.919Z,26.18
2022-12-18T11:47:21.895Z,28.86
2022-12-18T11:48:21.773Z,28.07
2022-12-18T11:49:21.789Z,26.87
2022-12-18T11:50:21.803Z,28.56
2022-12-18T11:51:24.982Z,28.76
2022-12-18T11:52:22.654Z,28.98
2022-12-18T11:53:21.629Z,29.02
2022-12-18T11:54:21.617Z,28.18
2022-12-18T11:55:21.580Z,27.25
2022-12-18T11:56:21.579Z,29.27
2022-12-18T11:57:21.543Z,26.71
2022-12-18T11:58:22.558Z,27.45
2022-12-18T11:59:21.464Z,27.25
2022-12-18T12:00:21.463Z,29.40
2022-12-18T12:01:21.449Z,25.00
2022-12-18T12:02:21.525Z,26.68
2022-12-18T12:03:21.771Z,28.53
2022-12-18T12:04:21.433Z,28.39
2022-12-18T12:05:21.299Z,29.61
2022-12-18T12:06:21.363Z,27.36
2022-12-18T12:07:21.297Z,28.89
2022-12-18T12:08:21.247Z,26.73
2022-12-18T12:09:21.185Z,29.60
2022-12-18T12:10:21.207Z,25.61
2022-12-18T12:11:21.168Z,26.67
2022-12-18T12:12:21.324Z,26.34
2022-12-18T12:13:21.118Z,27.03
2022-12-18T12:14:21.074Z,25.86
2022-12-18T12:15:21.034Z,25.00
2022-12-18T12:16:21.087Z,27.91
2022-12-18T12:17:20.992Z,26.12
2022-12-18T12:18:20.937Z,25.59
2022-12-18T12:19:20.907Z,25.97
2022-12-18T12:20:20.904Z,26.88
2022-12-18T12:21:20.867Z,29.55
2022-12-18T12:22:20.951Z,28.34
2022-12-18T12:23:24.773Z,25.85
2022-12-18T12:24:21.820Z,26.17
2022-12-18T12:25:20.808Z,26.37
2022-12-18T12:26:20.757Z,27.04
2022-12-18T12:27:20.704Z,26.70
2022-12-18T12:28:20.699Z,30.08
2022-12-18T12:29:21.373Z,26.16
2022-12-18T12:30:21.489Z,26.38
2022-12-18T12:31:20.821Z,27.16
2022-12-18T12:32:20.636Z,27.11
2022-12-18T12:33:20.585Z,26.45
2022-12-18T12:34:20.569Z,27.25
2022-12-18T12:35:20.529Z,25.58
2022-12-18T12:36:20.618Z,25.00
2022-12-18T12:37:20.558Z,25.00
2022-12-18T12:38:20.549Z,22.68
2022-12-18T12:39:20.404Z,25.00
2022-12-18T12:40:48.223Z,26.54
2022-12-18T12:41:21.399Z,26.60
2022-12-18T12:42:20.358Z,15.13
2022-12-18T12:43:20.580Z,28.38
2022-12-18T12:44:20.318Z,38.54
2022-12-18T12:45:20.361Z,51.09
2022-12-18T12:46:20.339Z,52.47
2022-12-18T12:47:20.320Z,47.73
2022-12-18T12:48:20.203Z,45.82
2022-12-18T12:49:20.217Z,44.57
2022-12-18T12:50:27.152Z,44.15
2022-12-18T12:51:20.129Z,44.51
2022-12-18T12:52:20.147Z,44.79
2022-12-18T12:53:20.067Z,45.63
2022-12-18T12:54:20.158Z,47.26
2022-12-18T12:55:20.039Z,52.61
2022-12-18T12:56:20.015Z,55.08
2022-12-18T12:57:20.011Z,51.03
2022-12-18T12:58:19.997Z,54.86
2022-12-18T12:59:19.954Z,60.87
2022-12-18T13:00:20.417Z,67.93
2022-12-18T13:01:23.358Z,65.28
2022-12-18T13:02:21.570Z,65.53
2022-12-18T13:03:20.635Z,65.64
2022-12-18T13:04:19.985Z,65.77
2022-12-18T13:05:19.947Z,64.55
2022-12-18T13:06:19.812Z,60.26
2022-12-18T13:07:19.728Z,60.72
2022-12-18T13:08:19.761Z,60.95
2022-12-18T13:09:19.851Z,61.40
2022-12-18T13:10:19.900Z,64.11
2022-12-18T13:11:19.849Z,65.60
2022-12-18T13:12:19.732Z,71.09
2022-12-18T13:13:23.686Z,71.19
2022-12-18T13:14:19.706Z,71.42
2022-12-18T13:15:19.721Z,72.18
2022-12-18T13:16:19.666Z,73.64
2022-12-18T13:17:19.706Z,77.37
2022-12-18T13:18:19.623Z,81.93
2022-12-18T13:19:19.618Z,87.48
2022-12-18T13:20:19.561Z,85.20
2022-12-18T13:21:19.603Z,88.47
2022-12-18T13:22:19.525Z,91.47
2022-12-18T13:23:19.520Z,93.27
2022-12-18T13:24:19.495Z,92.53
2022-12-18T13:25:19.515Z,96.88
2022-12-18T13:26:24.631Z,98.73
2022-12-18T13:27:20.469Z,99.05
2022-12-18T13:28:19.401Z,98.96
2022-12-18T13:29:19.423Z,100.63
2022-12-18T13:30:19.333Z,101.75
2022-12-18T13:31:19.332Z,104.16
2022-12-18T13:32:19.967Z,105.58
2022-12-18T13:33:19.285Z,107.19
2022-12-18T13:34:28.387Z,111.19
2022-12-18T13:35:20.385Z,111.41
2022-12-18T13:36:19.179Z,111.49
2022-12-18T13:37:19.320Z,111.56
2022-12-18T13:38:19.151Z,112.54
2022-12-18T13:39:23.881Z,111.59
2022-12-18T13:40:20.196Z,111.59
2022-12-18T13:41:19.150Z,112.72
2022-12-18T13:42:19.223Z,115.60
2022-12-18T13:43:19.112Z,120.86
2022-12-18T13:44:19.078Z,126.07
2022-12-18T13:45:19.038Z,131.75
2022-12-18T13:46:19.009Z,133.18
2022-12-18T13:47:18.984Z,130.71
2022-12-18T13:48:18.982Z,130.74
2022-12-18T13:49:18.924Z,130.83
2022-12-18T13:50:18.914Z,131.87
2022-12-18T13:51:18.888Z,129.98
2022-12-18T13:52:19.004Z,130.72
2022-12-18T13:53:18.816Z,131.35
2022-12-18T13:54:18.898Z,130.23
2022-12-18T13:55:18.766Z,131.46
2022-12-18T13:56:18.762Z,133.58
2022-12-18T13:57:20.638Z,133.88
2022-12-18T13:58:18.782Z,141.25
2022-12-18T13:59:18.651Z,137.23
2022-12-18T14:00:18.634Z,137.50
2022-12-18T14:01:18.691Z,137.40
2022-12-18T14:02:18.849Z,134.11
2022-12-18T14:03:22.037Z,134.26
2022-12-18T14:04:18.567Z,137.39
2022-12-18T14:05:18.495Z,135.16
2022-12-18T14:06:18.624Z,137.29
2022-12-18T14:07:18.518Z,133.87
2022-12-18T14:08:18.437Z,134.30
2022-12-18T14:09:21.522Z,135.96
2022-12-18T14:10:44.399Z,136.17
2022-12-18T14:11:19.356Z,136.36
2022-12-18T14:12:18.326Z,136.82
2022-12-18T14:13:18.323Z,136.87
2022-12-18T14:14:18.628Z,138.33
2022-12-18T14:15:18.450Z,140.86
2022-12-18T14:16:18.478Z,141.35
2022-12-18T14:17:18.415Z,139.75
2022-12-18T14:18:18.414Z,138.04
2022-12-18T14:19:18.323Z,139.05
2022-12-18T14:20:18.353Z,140.85
2022-12-18T14:21:18.269Z,139.59
2022-12-18T14:22:18.351Z,137.51
2022-12-18T14:23:18.197Z,139.86
2022-12-18T14:24:19.748Z,137.45
2022-12-18T14:25:18.161Z,140.65
2022-12-18T14:26:18.157Z,141.32
2022-12-18T14:27:18.055Z,143.77
2022-12-18T14:28:18.085Z,148.01
2022-12-18T14:29:18.028Z,144.77
2022-12-18T14:30:18.102Z,145.43
2022-12-18T14:31:18.044Z,145.10
2022-12-18T14:32:18.687Z,144.47
2022-12-18T14:33:17.875Z,142.72
2022-12-18T14:34:17.859Z,141.94
2022-12-18T14:35:17.788Z,149.89
2022-12-18T14:36:17.791Z,146.51
2022-12-18T14:37:17.771Z,147.00
2022-12-18T14:38:17.712Z,144.22
2022-12-18T14:39:17.647Z,141.33
2022-12-18T14:40:17.646Z,139.87
2022-12-18T14:41:17.534Z,139.35
2022-12-18T14:42:17.553Z,137.00
2022-12-18T14:43:17.503Z,133.76
2022-12-18T14:44:17.476Z,133.30
2022-12-18T14:45:17.390Z,130.99
2022-12-18T14:46:17.528Z,134.02
2022-12-18T14:47:17.445Z,131.38
2022-12-18T14:48:17.816Z,132.49
2022-12-18T14:49:18.268Z,132.65
2022-12-18T14:50:17.212Z,132.89
2022-12-18T14:51:17.211Z,130.86
2022-12-18T14:52:17.152Z,127.55
2022-12-18T14:53:17.124Z,129.97
2022-12-18T14:54:17.048Z,124.96
2022-12-18T14:55:17.048Z,124.32
2022-12-18T14:56:16.991Z,126.73
2022-12-18T14:57:16.934Z,125.84
2022-12-18T14:58:16.909Z,120.43
2022-12-18T14:59:20.762Z,120.78
2022-12-18T15:00:17.839Z,120.95
2022-12-18T15:01:16.827Z,120.78
2022-12-18T15:02:17.162Z,119.57
2022-12-18T15:03:16.795Z,120.69
2022-12-18T15:04:16.704Z,120.59
2022-12-18T15:05:16.629Z,115.85
2022-12-18T15:06:16.648Z,117.66
2022-12-18T15:07:16.626Z,119.81
2022-12-18T15:08:16.545Z,116.97
2022-12-18T15:09:16.506Z,117.46
2022-12-18T15:10:16.469Z,114.81
2022-12-18T15:11:16.403Z,116.39
2022-12-18T15:12:16.385Z,113.98
2022-12-18T15:13:16.338Z,111.80
2022-12-18T15:14:16.314Z,111.60
2022-12-18T15:15:16.244Z,110.63
2022-12-18T15:16:16.404Z,114.11
2022-12-18T15:17:16.163Z,112.61
2022-12-18T15:18:16.720Z,111.20
2022-12-18T15:19:16.141Z,112.21
2022-12-18T15:20:16.087Z,111.62
2022-12-18T15:21:16.026Z,111.93
2022-12-18T15:22:16.023Z,110.71
2022-12-18T15:23:15.915Z,109.07
2022-12-18T15:24:15.908Z,108.73
2022-12-18T15:25:15.849Z,109.53
2022-12-18T15:26:15.837Z,107.34
2022-12-18T15:27:15.747Z,107.70
2022-12-18T15:28:15.753Z,105.54
2022-12-18T15:29:15.969Z,108.11
2022-12-18T15:30:15.679Z,105.50
2022-12-18T15:31:16.212Z,104.87
2022-12-18T15:32:15.664Z,106.74
2022-12-18T15:33:15.558Z,104.25
2022-12-18T15:34:15.663Z,104.39
2022-12-18T15:35:15.482Z,102.16
2022-12-18T15:36:15.480Z,103.48
2022-12-18T15:37:15.417Z,97.37
2022-12-18T15:38:15.392Z,101.09
2022-12-18T15:39:15.291Z,102.11
2022-12-18T15:40:15.298Z,99.32
2022-12-18T15:41:17.838Z,99.76
2022-12-18T15:42:16.162Z,99.99
2022-12-18T15:43:15.116Z,99.85
2022-12-18T15:44:15.096Z,98.10
2022-12-18T15:45:14.979Z,96.73
2022-12-18T15:46:15.047Z,97.28
2022-12-18T15:47:14.987Z,98.14
2022-12-18T15:48:14.877Z,94.15
2022-12-18T15:49:14.799Z,93.81
2022-12-18T15:50:14.872Z,96.32
2022-12-18T15:51:14.688Z,94.53
2022-12-18T15:52:14.672Z,93.51
2022-12-18T15:53:14.589Z,93.27
2022-12-18T15:54:14.557Z,96.35
2022-12-18T15:55:14.492Z,84.62
2022-12-18T15:56:14.467Z,0.00
2022-12-18T15:57:14.476Z,0.00
2022-12-18T15:58:14.437Z,0.00
2022-12-18T15:59:14.363Z,0.00
2022-12-18T16:00:14.380Z,4.19
2022-12-18T16:01:14.337Z,31.02
2022-12-18T16:02:14.484Z,31.04
2022-12-18T16:03:14.351Z,25.75
2022-12-18T16:04:14.330Z,25.49
2022-12-18T16:05:14.256Z,24.12
2022-12-18T16:06:14.365Z,25.74
2022-12-18T16:07:15.801Z,27.42
2022-12-18T16:08:15.288Z,29.09
2022-12-18T16:09:14.262Z,33.40
2022-12-18T16:10:14.307Z,42.16
2022-12-18T16:11:14.220Z,57.46
2022-12-18T16:12:14.339Z,48.24
2022-12-18T16:13:14.228Z,37.81
2022-12-18T16:14:14.231Z,46.38
2022-12-18T16:15:14.146Z,52.57
2022-12-18T16:16:14.196Z,60.04
2022-12-18T16:17:14.226Z,65.67
2022-12-18T16:18:14.130Z,76.76
2022-12-18T16:19:14.283Z,81.66
2022-12-18T16:20:14.035Z,99.34
2022-12-18T16:21:13.977Z,111.12
2022-12-18T16:22:14.051Z,116.55
2022-12-18T16:23:13.884Z,122.46
2022-12-18T16:24:13.867Z,120.60
2022-12-18T16:25:14.203Z,127.08
2022-12-18T16:26:13.808Z,131.99
2022-12-18T16:27:13.708Z,133.46
2022-12-18T16:28:13.720Z,136.48
2022-12-18T16:29:13.655Z,144.06
2022-12-18T16:30:13.634Z,143.69
2022-12-18T16:31:13.600Z,141.94
2022-12-18T16:32:13.632Z,145.65
2022-12-18T16:33:13.488Z,151.00
2022-12-18T16:34:13.485Z,154.48
2022-12-18T16:35:13.366Z,154.64
2022-12-18T16:36:13.378Z,160.19
2022-12-18T16:37:13.309Z,162.66
2022-12-18T16:38:13.385Z,161.71
2022-12-18T16:39:13.246Z,167.36
2022-12-18T16:40:13.192Z,170.55
2022-12-18T16:41:13.107Z,173.52
2022-12-18T16:42:13.071Z,174.98
2022-12-18T16:43:13.027Z,180.31
2022-12-18T16:44:13.021Z,181.03
2022-12-18T16:45:12.902Z,183.53
2022-12-18T16:46:13.004Z,189.92
2022-12-18T16:47:15.072Z,187.72
2022-12-18T16:48:13.028Z,190.27
2022-12-18T16:49:12.931Z,187.03
2022-12-18T16:50:12.918Z,185.37
2022-12-18T16:51:12.847Z,185.79
2022-12-18T16:52:12.842Z,190.23
2022-12-18T16:53:12.716Z,187.49
2022-12-18T16:54:18.665Z,191.32
2022-12-18T16:55:13.661Z,191.84
2022-12-18T16:56:12.594Z,192.46
2022-12-18T16:57:12.543Z,193.68
2022-12-18T16:58:12.471Z,198.02
2022-12-18T16:59:12.472Z,201.47
2022-12-18T17:00:12.404Z,209.77
2022-12-18T17:01:12.422Z,202.55
2022-12-18T17:02:12.470Z,208.82
2022-12-18T17:03:12.351Z,208.06
2022-12-18T17:04:12.212Z,209.04
2022-12-18T17:05:12.137Z,213.40
2022-12-18T17:06:12.062Z,211.81
2022-12-18T17:07:12.034Z,220.94
2022-12-18T17:08:11.951Z,222.52
2022-12-18T17:09:11.887Z,217.37
2022-12-18T17:10:11.920Z,217.05
2022-12-18T17:11:11.759Z,219.91
2022-12-18T17:12:11.692Z,224.87
2022-12-18T17:13:11.658Z,221.52
2022-12-18T17:14:11.586Z,229.30
2022-12-18T17:15:11.552Z,226.31
2022-12-18T17:16:11.489Z,225.99
2022-12-18T17:17:26.919Z,225.75
2022-12-18T17:18:12.374Z,226.19
2022-12-18T17:19:16.775Z,227.30
2022-12-18T17:20:12.238Z,226.35
2022-12-18T17:21:11.182Z,227.45
2022-12-18T17:22:11.155Z,231.57
2022-12-18T17:23:11.023Z,232.99
2022-12-18T17:24:11.018Z,234.53
2022-12-18T17:25:10.922Z,235.36
2022-12-18T17:26:10.994Z,235.46
2022-12-18T17:27:10.812Z,236.77
2022-12-18T17:28:10.774Z,238.18
2022-12-18T17:29:10.709Z,239.35
2022-12-18T17:30:10.683Z,240.55
2022-12-18T17:31:10.585Z,240.99
2022-12-18T17:32:10.528Z,242.04
2022-12-18T17:33:10.445Z,240.68
2022-12-18T17:34:10.424Z,241.21
2022-12-18T17:35:10.347Z,245.56
2022-12-18T17:36:10.334Z,245.52
2022-12-18T17:37:10.216Z,244.22
2022-12-18T17:38:10.198Z,245.48
2022-12-18T17:39:10.092Z,248.12
2022-12-18T17:40:10.079Z,247.46
2022-12-18T17:41:10.008Z,247.87
2022-12-18T17:42:10.048Z,250.00
2022-12-18T17:43:09.861Z,250.31
2022-12-18T17:44:09.857Z,250.80
2022-12-18T17:45:09.755Z,252.16
2022-12-18T17:46:09.731Z,254.66
2022-12-18T17:47:09.652Z,260.94
2022-12-18T17:48:09.631Z,250.00
2022-12-18T17:49:09.525Z,247.07
2022-12-18T17:50:09.496Z,248.71
2022-12-18T17:51:09.413Z,246.46
2022-12-18T17:52:09.461Z,245.44
2022-12-18T17:53:09.305Z,248.95
2022-12-18T17:54:09.380Z,247.11
2022-12-18T17:55:09.215Z,245.87
2022-12-18T17:56:09.192Z,247.64
2022-12-18T17:57:09.511Z,271.89
2022-12-18T17:58:09.919Z,237.13
2022-12-18T17:59:09.553Z,237.54
2022-12-18T18:00:09.115Z,235.92
2022-12-18T18:01:08.884Z,239.37
2022-12-18T18:02:09.072Z,241.23
2022-12-18T18:03:08.969Z,278.97
2022-12-18T18:04:08.854Z,234.70
2022-12-18T18:05:08.651Z,239.48
2022-12-18T18:06:08.643Z,240.01
2022-12-18T18:07:08.595Z,241.41
2022-12-18T18:08:08.556Z,239.68
2022-12-18T18:09:15.095Z,238.09
2022-12-18T18:10:09.414Z,238.26
2022-12-18T18:11:08.344Z,238.79
2022-12-18T18:12:08.327Z,239.23
2022-12-18T18:13:08.222Z,241.73
2022-12-18T18:14:08.312Z,241.50
2022-12-18T18:15:08.139Z,241.86
2022-12-18T18:16:08.257Z,245.34
2022-12-18T18:17:08.020Z,244.98
2022-12-18T18:18:07.994Z,246.96
2022-12-18T18:19:07.939Z,246.08
2022-12-18T18:20:07.900Z,246.78
2022-12-18T18:21:07.819Z,248.99
2022-12-18T18:22:07.777Z,246.71
2022-12-18T18:23:07.705Z,245.80
2022-12-18T18:24:07.697Z,247.89
2022-12-18T18:25:07.598Z,243.63
2022-12-18T18:26:07.614Z,242.28
2022-12-18T18:27:07.572Z,244.94
2022-12-18T18:28:07.633Z,246.02
2022-12-18T18:29:07.428Z,246.03
2022-12-18T18:30:07.494Z,247.28
2022-12-18T18:31:07.354Z,246.53
2022-12-18T18:32:07.451Z,245.18
2022-12-18T18:33:11.905Z,245.07
2022-12-18T18:34:08.211Z,245.20
2022-12-18T18:35:12.409Z,245.43
2022-12-18T18:36:08.182Z,245.37
2022-12-18T18:37:07.068Z,245.36
2022-12-18T18:38:07.019Z,244.79
2022-12-18T18:39:06.962Z,245.32
2022-12-18T18:40:06.898Z,246.46
2022-12-18T18:41:06.835Z,244.92
2022-12-18T18:42:06.791Z,244.51
2022-12-18T18:43:06.734Z,245.61
2022-12-18T18:44:06.687Z,246.15
2022-12-18T18:45:07.181Z,244.49
2022-12-18T18:46:06.828Z,243.75
2022-12-18T18:47:09.536Z,242.36
2022-12-18T18:48:06.573Z,243.10
2022-12-18T18:49:06.414Z,247.60
2022-12-18T18:50:06.473Z,218.62
2022-12-18T18:51:06.302Z,129.86
2022-12-18T18:52:06.333Z,112.42
2022-12-18T18:53:06.313Z,94.86
2022-12-18T18:54:06.252Z,75.27
2022-12-18T18:55:13.376Z,46.17
2022-12-18T18:56:45.559Z,47.55
2022-12-18T18:57:26.279Z,48.24
2022-12-18T18:58:07.109Z,47.94
2022-12-18T18:59:06.084Z,53.07
2022-12-18T19:00:06.051Z,58.68
2022-12-18T19:01:06.051Z,79.18
2022-12-18T19:02:06.208Z,98.40
2022-12-18T19:03:06.256Z,100.88
2022-12-18T19:04:05.926Z,110.90
2022-12-18T19:05:05.913Z,111.74
2022-12-18T19:06:05.895Z,113.00
2022-12-18T19:07:05.827Z,120.92
2022-12-18T19:08:05.808Z,235.08
2022-12-18T19:09:05.772Z,137.33
2022-12-18T19:10:05.745Z,138.80
2022-12-18T19:11:05.654Z,157.75
2022-12-18T19:12:05.639Z,148.47
2022-12-18T19:13:05.572Z,171.02
2022-12-18T19:14:05.590Z,147.32
2022-12-18T19:15:05.451Z,145.07
2022-12-18T19:16:05.614Z,145.88
2022-12-18T19:17:05.402Z,145.12
2022-12-18T19:18:05.466Z,147.74
2022-12-18T19:19:05.294Z,149.11
2022-12-18T19:20:05.263Z,151.39
2022-12-18T19:21:05.173Z,151.57
2022-12-18T19:22:05.166Z,153.27
2022-12-18T19:23:05.096Z,151.57
2022-12-18T19:24:05.083Z,148.75
2022-12-18T19:25:04.999Z,150.35
2022-12-18T19:26:27.657Z,150.68
2022-12-18T19:27:05.933Z,150.98
2022-12-18T19:28:04.876Z,150.86
2022-12-18T19:29:04.832Z,147.97
2022-12-18T19:30:04.777Z,150.90
2022-12-18T19:31:04.780Z,150.91
2022-12-18T19:32:04.768Z,155.32
2022-12-18T19:33:19.813Z,159.65
2022-12-18T19:34:05.694Z,159.73
2022-12-18T19:35:04.561Z,159.93
2022-12-18T19:36:04.555Z,160.42
2022-12-18T19:37:04.473Z,163.48
2022-12-18T19:38:04.446Z,161.15
2022-12-18T19:39:04.416Z,161.39
2022-12-18T19:40:12.289Z,161.90
2022-12-18T19:41:05.297Z,162.30
2022-12-18T19:42:04.234Z,162.97
2022-12-18T19:43:04.235Z,165.18
2022-12-18T19:44:07.581Z,165.91
2022-12-18T19:45:04.104Z,162.26
2022-12-18T19:46:04.117Z,163.75
2022-12-18T19:47:04.055Z,164.35
2022-12-18T19:48:04.607Z,166.66
2022-12-18T19:49:03.943Z,168.68
2022-12-18T19:50:04.011Z,171.44
2022-12-18T19:51:03.861Z,171.72
2022-12-18T19:52:03.778Z,173.31
2022-12-18T19:53:03.841Z,172.82
2022-12-18T19:54:03.694Z,174.77
2022-12-18T19:55:03.722Z,173.37
2022-12-18T19:56:03.607Z,172.91
2022-12-18T19:57:03.670Z,171.19
2022-12-18T19:58:03.549Z,172.07
2022-12-18T19:59:03.548Z,172.76
2022-12-18T20:00:03.491Z,174.91
2022-12-18T20:01:03.473Z,172.99
2022-12-18T20:02:03.533Z,173.39
2022-12-18T20:03:12.527Z,174.71
2022-12-18T20:04:04.412Z,174.93
2022-12-18T20:05:03.219Z,175.12
2022-12-18T20:06:03.315Z,175.38
2022-12-18T20:07:03.110Z,176.47
2022-12-18T20:08:03.086Z,175.30
2022-12-18T20:09:03.016Z,174.62
2022-12-18T20:10:08.654Z,176.39
2022-12-18T20:11:03.925Z,176.59
2022-12-18T20:12:02.881Z,176.52
2022-12-18T20:13:02.848Z,177.32
2022-12-18T20:14:02.790Z,176.86
2022-12-18T20:15:02.762Z,177.28
2022-12-18T20:16:02.647Z,176.85
2022-12-18T20:17:02.708Z,176.37
2022-12-18T20:18:02.588Z,175.84
2022-12-18T20:19:02.573Z,177.71
2022-12-18T20:20:02.497Z,175.65
2022-12-18T20:21:02.558Z,176.80
2022-12-18T20:22:08.276Z,176.71
2022-12-18T20:23:03.493Z,176.94
2022-12-18T20:24:02.354Z,176.84
2022-12-18T20:25:02.298Z,176.23
2022-12-18T20:26:02.190Z,177.21
2022-12-18T20:27:02.242Z,178.11
2022-12-18T20:28:02.142Z,176.49
2022-12-18T20:29:02.111Z,177.22
2022-12-18T20:30:02.048Z,177.11
2022-12-18T20:31:02.027Z,178.30
2022-12-18T20:32:01.991Z,178.19
2022-12-18T20:33:01.898Z,178.61
2022-12-18T20:34:03.587Z,177.75
2022-12-18T20:35:04.048Z,180.33
2022-12-18T20:36:01.747Z,180.47
2022-12-18T20:37:01.736Z,180.41
2022-12-18T20:38:01.625Z,180.37
2022-12-18T20:39:03.935Z,179.62
2022-12-18T20:40:01.565Z,180.49
2022-12-18T20:41:01.553Z,180.45
2022-12-18T20:42:01.430Z,178.93
2022-12-18T20:43:01.438Z,177.87
2022-12-18T20:44:01.377Z,179.71
2022-12-18T20:45:01.360Z,178.98
2022-12-18T20:46:01.294Z,180.28
2022-12-18T20:47:02.007Z,180.48
2022-12-18T20:48:02.311Z,180.69
2022-12-18T20:49:01.147Z,181.24
2022-12-18T20:50:01.148Z,181.20
2022-12-18T20:51:02.588Z,181.45
2022-12-18T20:52:01.027Z,185.67
2022-12-18T20:53:00.965Z,184.14
2022-12-18T20:54:00.970Z,182.18
2022-12-18T20:55:00.962Z,182.30
2022-12-18T20:56:00.838Z,184.29
2022-12-18T20:57:00.789Z,183.59
2022-12-18T20:58:00.781Z,182.76
2022-12-18T20:59:00.711Z,183.90
2022-12-18T21:00:00.684Z,185.36
2022-12-18T21:01:00.652Z,185.19